sensor_id;sensor_type;location;lat;lon;timestamp;P1;durP1;ratioP1;P2;durP2;ratioP2
74908;SDS011;63468;52.058;4.824;2023-07-28T00:00:05;26.38;;;24.38;;
74908;SDS011;63468;52.058;4.824;2023-07-28T00:02:31;25.83;;;23.77;;
74908;SDS011;63468;52.058;4.824;2023-07-28T00:04:56;26.02;;;23.95;;
74908;SDS011;63468;52.058;4.824;2023-07-28T00:07:21;25.42;;;23.40;;
74908;SDS011;63468;52.058;4.824;2023-07-28T00:09:47;26.48;;;24.00;;
74908;SDS011;63468;52.058;4.824;2023-07-28T00:12:12;27.23;;;25.08;;
74908;SDS011;63468;52.058;4.824;2023-07-28T00:14:37;25.58;;;23.67;;
74908;SDS011;63468;52.058;4.824;2023-07-28T00:17:03;26.45;;;24.20;;
74908;SDS011;63468;52.058;4.824;2023-07-28T00:19:28;25.60;;;23.52;;
74908;SDS011;63468;52.058;4.824;2023-07-28T00:21:56;27.13;;;24.67;;
74908;SDS011;63468;52.058;4.824;2023-07-28T00:24:21;26.15;;;23.95;;
74908;SDS011;63468;52.058;4.824;2023-07-28T00:26:47;26.88;;;24.77;;
74908;SDS011;63468;52.058;4.824;2023-07-28T00:29:12;26.60;;;24.38;;
74908;SDS011;63468;52.058;4.824;2023-07-28T00:31:37;28.98;;;26.67;;
74908;SDS011;63468;52.058;4.824;2023-07-28T00:34:03;25.90;;;23.80;;
74908;SDS011;63468;52.058;4.824;2023-07-28T00:36:29;28.00;;;25.65;;
74908;SDS011;63468;52.058;4.824;2023-07-28T00:38:54;28.98;;;26.48;;
74908;SDS011;63468;52.058;4.824;2023-07-28T00:41:20;28.42;;;26.00;;
74908;SDS011;63468;52.058;4.824;2023-07-28T00:43:51;30.25;;;27.52;;
74908;SDS011;63468;52.058;4.824;2023-07-28T00:46:16;28.38;;;26.17;;
74908;SDS011;63468;52.058;4.824;2023-07-28T00:48:42;27.52;;;25.13;;
74908;SDS011;63468;52.058;4.824;2023-07-28T00:51:08;31.00;;;28.48;;
74908;SDS011;63468;52.058;4.824;2023-07-28T00:53:34;30.30;;;27.70;;
74908;SDS011;63468;52.058;4.824;2023-07-28T00:56:00;28.83;;;26.55;;
74908;SDS011;63468;52.058;4.824;2023-07-28T00:58:26;29.30;;;26.85;;
74908;SDS011;63468;52.058;4.824;2023-07-28T01:00:51;28.73;;;26.35;;
74908;SDS011;63468;52.058;4.824;2023-07-28T01:03:17;29.38;;;26.90;;
74908;SDS011;63468;52.058;4.824;2023-07-28T01:08:51;30.90;;;27.85;;
74908;SDS011;63468;52.058;4.824;2023-07-28T01:11:20;28.65;;;25.98;;
74908;SDS011;63468;52.058;4.824;2023-07-28T01:13:46;31.55;;;28.67;;
74908;SDS011;63468;52.058;4.824;2023-07-28T01:16:11;28.92;;;26.23;;
74908;SDS011;63468;52.058;4.824;2023-07-28T01:18:37;30.42;;;27.65;;
74908;SDS011;63468;52.058;4.824;2023-07-28T01:21:03;32.50;;;29.15;;
74908;SDS011;63468;52.058;4.824;2023-07-28T01:23:44;32.35;;;29.30;;
74908;SDS011;63468;52.058;4.824;2023-07-28T01:26:15;31.35;;;28.35;;
74908;SDS011;63468;52.058;4.824;2023-07-28T01:28:41;32.22;;;29.30;;
74908;SDS011;63468;52.058;4.824;2023-07-28T01:31:08;30.80;;;28.17;;
74908;SDS011;63468;52.058;4.824;2023-07-28T01:33:34;31.10;;;28.27;;
74908;SDS011;63468;52.058;4.824;2023-07-28T01:36:00;32.33;;;29.13;;
74908;SDS011;63468;52.058;4.824;2023-07-28T01:38:26;31.77;;;28.83;;
74908;SDS011;63468;52.058;4.824;2023-07-28T01:40:51;33.40;;;30.15;;
74908;SDS011;63468;52.058;4.824;2023-07-28T01:43:17;34.28;;;31.02;;
74908;SDS011;63468;52.058;4.824;2023-07-28T01:45:42;31.83;;;28.85;;
74908;SDS011;63468;52.058;4.824;2023-07-28T01:48:07;31.10;;;27.95;;
74908;SDS011;63468;52.058;4.824;2023-07-28T01:50:35;32.05;;;28.83;;
74908;SDS011;63468;52.058;4.824;2023-07-28T01:53:01;32.03;;;28.95;;
74908;SDS011;63468;52.058;4.824;2023-07-28T01:55:27;32.47;;;29.15;;
74908;SDS011;63468;52.058;4.824;2023-07-28T01:57:57;31.55;;;28.63;;
74908;SDS011;63468;52.058;4.824;2023-07-28T02:00:24;32.65;;;29.70;;
74908;SDS011;63468;52.058;4.824;2023-07-28T02:02:49;31.90;;;28.83;;
74908;SDS011;63468;52.058;4.824;2023-07-28T02:05:15;30.60;;;27.80;;
74908;SDS011;63468;52.058;4.824;2023-07-28T02:07:41;29.92;;;27.05;;
74908;SDS011;63468;52.058;4.824;2023-07-28T02:10:06;31.05;;;28.40;;
74908;SDS011;63468;52.058;4.824;2023-07-28T02:12:32;32.10;;;28.90;;
74908;SDS011;63468;52.058;4.824;2023-07-28T02:14:58;32.20;;;29.40;;
74908;SDS011;63468;52.058;4.824;2023-07-28T02:17:23;31.73;;;28.67;;
74908;SDS011;63468;52.058;4.824;2023-07-28T02:19:48;31.25;;;28.60;;
74908;SDS011;63468;52.058;4.824;2023-07-28T02:22:14;30.80;;;27.83;;
74908;SDS011;63468;52.058;4.824;2023-07-28T02:24:40;32.28;;;29.33;;
74908;SDS011;63468;52.058;4.824;2023-07-28T02:27:05;32.70;;;29.45;;
74908;SDS011;63468;52.058;4.824;2023-07-28T02:29:30;31.83;;;28.70;;
74908;SDS011;63468;52.058;4.824;2023-07-28T02:31:56;33.63;;;30.02;;
74908;SDS011;63468;52.058;4.824;2023-07-28T02:34:21;32.25;;;28.95;;
74908;SDS011;63468;52.058;4.824;2023-07-28T02:36:47;32.40;;;29.45;;
74908;SDS011;63468;52.058;4.824;2023-07-28T02:39:12;33.15;;;29.70;;
74908;SDS011;63468;52.058;4.824;2023-07-28T02:41:37;33.30;;;29.88;;
74908;SDS011;63468;52.058;4.824;2023-07-28T02:44:03;33.90;;;30.45;;
74908;SDS011;63468;52.058;4.824;2023-07-28T02:46:28;33.13;;;30.33;;
74908;SDS011;63468;52.058;4.824;2023-07-28T02:48:54;33.58;;;30.38;;
74908;SDS011;63468;52.058;4.824;2023-07-28T02:51:19;33.05;;;29.55;;
74908;SDS011;63468;52.058;4.824;2023-07-28T02:53:44;32.63;;;29.48;;
74908;SDS011;63468;52.058;4.824;2023-07-28T02:56:09;33.47;;;30.17;;
74908;SDS011;63468;52.058;4.824;2023-07-28T02:58:35;31.42;;;28.25;;
74908;SDS011;63468;52.058;4.824;2023-07-28T03:01:00;32.40;;;28.98;;
74908;SDS011;63468;52.058;4.824;2023-07-28T03:03:25;33.83;;;30.45;;
74908;SDS011;63468;52.058;4.824;2023-07-28T03:05:51;34.88;;;31.65;;
74908;SDS011;63468;52.058;4.824;2023-07-28T03:08:17;35.47;;;32.22;;
74908;SDS011;63468;52.058;4.824;2023-07-28T03:10:43;34.65;;;31.27;;
74908;SDS011;63468;52.058;4.824;2023-07-28T03:13:08;34.38;;;31.20;;
74908;SDS011;63468;52.058;4.824;2023-07-28T03:15:33;34.47;;;31.30;;
74908;SDS011;63468;52.058;4.824;2023-07-28T03:17:59;34.38;;;31.17;;
74908;SDS011;63468;52.058;4.824;2023-07-28T03:20:24;35.22;;;31.63;;
74908;SDS011;63468;52.058;4.824;2023-07-28T03:22:50;37.00;;;33.30;;
74908;SDS011;63468;52.058;4.824;2023-07-28T03:25:15;35.45;;;32.15;;
74908;SDS011;63468;52.058;4.824;2023-07-28T03:27:40;37.67;;;34.28;;
74908;SDS011;63468;52.058;4.824;2023-07-28T03:30:06;36.40;;;32.80;;
74908;SDS011;63468;52.058;4.824;2023-07-28T03:32:34;38.28;;;34.70;;
74908;SDS011;63468;52.058;4.824;2023-07-28T03:34:59;37.97;;;33.95;;
74908;SDS011;63468;52.058;4.824;2023-07-28T03:37:33;38.15;;;34.20;;
74908;SDS011;63468;52.058;4.824;2023-07-28T03:39:58;37.30;;;33.30;;
74908;SDS011;63468;52.058;4.824;2023-07-28T03:42:24;37.47;;;33.60;;
74908;SDS011;63468;52.058;4.824;2023-07-28T03:44:49;40.72;;;33.42;;
74908;SDS011;63468;52.058;4.824;2023-07-28T03:47:15;45.90;;;35.70;;
74908;SDS011;63468;52.058;4.824;2023-07-28T03:49:40;35.80;;;32.05;;
74908;SDS011;63468;52.058;4.824;2023-07-28T03:52:05;37.95;;;34.33;;
74908;SDS011;63468;52.058;4.824;2023-07-28T03:54:31;38.22;;;34.20;;
74908;SDS011;63468;52.058;4.824;2023-07-28T03:56:56;40.08;;;33.92;;
74908;SDS011;63468;52.058;4.824;2023-07-28T03:59:21;38.83;;;34.70;;
74908;SDS011;63468;52.058;4.824;2023-07-28T04:01:47;36.47;;;32.72;;
74908;SDS011;63468;52.058;4.824;2023-07-28T04:04:12;38.47;;;34.10;;
74908;SDS011;63468;52.058;4.824;2023-07-28T04:06:39;38.22;;;33.40;;
74908;SDS011;63468;52.058;4.824;2023-07-28T04:09:15;42.15;;;33.80;;
74908;SDS011;63468;52.058;4.824;2023-07-28T04:11:41;44.92;;;34.22;;
74908;SDS011;63468;52.058;4.824;2023-07-28T04:14:06;38.30;;;34.22;;
74908;SDS011;63468;52.058;4.824;2023-07-28T04:16:32;35.70;;;31.92;;
74908;SDS011;63468;52.058;4.824;2023-07-28T04:18:57;38.97;;;33.13;;
74908;SDS011;63468;52.058;4.824;2023-07-28T04:21:23;38.85;;;34.70;;
74908;SDS011;63468;52.058;4.824;2023-07-28T04:23:48;37.17;;;33.20;;
74908;SDS011;63468;52.058;4.824;2023-07-28T04:26:13;36.92;;;33.17;;
74908;SDS011;63468;52.058;4.824;2023-07-28T04:28:39;37.72;;;33.67;;
74908;SDS011;63468;52.058;4.824;2023-07-28T04:31:04;39.03;;;33.33;;
74908;SDS011;63468;52.058;4.824;2023-07-28T04:33:30;36.53;;;32.63;;
74908;SDS011;63468;52.058;4.824;2023-07-28T04:35:55;37.47;;;33.25;;
74908;SDS011;63468;52.058;4.824;2023-07-28T04:38:20;37.30;;;33.30;;
74908;SDS011;63468;52.058;4.824;2023-07-28T04:40:46;38.42;;;31.67;;
74908;SDS011;63468;52.058;4.824;2023-07-28T04:43:11;35.40;;;31.73;;
74908;SDS011;63468;52.058;4.824;2023-07-28T04:45:36;35.42;;;31.77;;
74908;SDS011;63468;52.058;4.824;2023-07-28T04:48:02;35.33;;;31.80;;
74908;SDS011;63468;52.058;4.824;2023-07-28T04:50:27;35.80;;;32.15;;
74908;SDS011;63468;52.058;4.824;2023-07-28T04:52:53;36.50;;;32.42;;
74908;SDS011;63468;52.058;4.824;2023-07-28T04:55:18;35.70;;;31.85;;
74908;SDS011;63468;52.058;4.824;2023-07-28T04:57:44;40.50;;;33.92;;
74908;SDS011;63468;52.058;4.824;2023-07-28T05:00:09;35.88;;;32.20;;
74908;SDS011;63468;52.058;4.824;2023-07-28T05:02:35;38.90;;;33.00;;
74908;SDS011;63468;52.058;4.824;2023-07-28T05:05:01;35.92;;;32.28;;
74908;SDS011;63468;52.058;4.824;2023-07-28T05:07:27;39.80;;;33.83;;
74908;SDS011;63468;52.058;4.824;2023-07-28T05:09:53;36.97;;;32.55;;
74908;SDS011;63468;52.058;4.824;2023-07-28T05:12:19;38.83;;;32.90;;
74908;SDS011;63468;52.058;4.824;2023-07-28T05:14:44;34.92;;;31.25;;
74908;SDS011;63468;52.058;4.824;2023-07-28T05:17:09;35.47;;;31.70;;
74908;SDS011;63468;52.058;4.824;2023-07-28T05:19:35;34.45;;;30.92;;
74908;SDS011;63468;52.058;4.824;2023-07-28T05:22:00;33.17;;;29.92;;
74908;SDS011;63468;52.058;4.824;2023-07-28T05:24:25;35.53;;;31.33;;
74908;SDS011;63468;52.058;4.824;2023-07-28T05:26:51;36.15;;;31.55;;
74908;SDS011;63468;52.058;4.824;2023-07-28T05:29:16;33.35;;;29.95;;
74908;SDS011;63468;52.058;4.824;2023-07-28T05:31:41;34.03;;;30.17;;
74908;SDS011;63468;52.058;4.824;2023-07-28T05:34:07;33.35;;;29.77;;
74908;SDS011;63468;52.058;4.824;2023-07-28T05:36:32;33.85;;;29.92;;
74908;SDS011;63468;52.058;4.824;2023-07-28T05:38:58;32.97;;;29.30;;
74908;SDS011;63468;52.058;4.824;2023-07-28T05:41:23;33.47;;;30.10;;
74908;SDS011;63468;52.058;4.824;2023-07-28T05:43:51;34.35;;;30.63;;
74908;SDS011;63468;52.058;4.824;2023-07-28T05:46:17;33.47;;;29.88;;
74908;SDS011;63468;52.058;4.824;2023-07-28T05:48:42;34.90;;;30.58;;
74908;SDS011;63468;52.058;4.824;2023-07-28T05:51:07;34.50;;;28.98;;
74908;SDS011;63468;52.058;4.824;2023-07-28T05:53:32;32.30;;;29.02;;
74908;SDS011;63468;52.058;4.824;2023-07-28T05:55:58;33.50;;;29.65;;
74908;SDS011;63468;52.058;4.824;2023-07-28T05:58:23;35.15;;;28.98;;
74908;SDS011;63468;52.058;4.824;2023-07-28T06:00:49;32.17;;;29.00;;
74908;SDS011;63468;52.058;4.824;2023-07-28T06:03:14;32.38;;;28.58;;
74908;SDS011;63468;52.058;4.824;2023-07-28T06:05:39;33.35;;;29.67;;
74908;SDS011;63468;52.058;4.824;2023-07-28T06:08:08;32.45;;;28.73;;
74908;SDS011;63468;52.058;4.824;2023-07-28T06:10:33;33.15;;;29.55;;
74908;SDS011;63468;52.058;4.824;2023-07-28T06:12:59;36.47;;;29.67;;
74908;SDS011;63468;52.058;4.824;2023-07-28T06:15:25;32.47;;;29.30;;
74908;SDS011;63468;52.058;4.824;2023-07-28T06:17:50;30.08;;;27.00;;
74908;SDS011;63468;52.058;4.824;2023-07-28T06:20:15;32.55;;;29.33;;
74908;SDS011;63468;52.058;4.824;2023-07-28T06:22:41;30.90;;;27.90;;
74908;SDS011;63468;52.058;4.824;2023-07-28T06:25:06;30.08;;;27.42;;
74908;SDS011;63468;52.058;4.824;2023-07-28T06:27:32;29.48;;;26.70;;
74908;SDS011;63468;52.058;4.824;2023-07-28T06:29:57;27.88;;;24.90;;
74908;SDS011;63468;52.058;4.824;2023-07-28T06:32:22;27.00;;;24.23;;
74908;SDS011;63468;52.058;4.824;2023-07-28T06:34:52;28.35;;;25.77;;
74908;SDS011;63468;52.058;4.824;2023-07-28T06:37:18;27.13;;;24.67;;
74908;SDS011;63468;52.058;4.824;2023-07-28T06:39:43;27.63;;;24.83;;
74908;SDS011;63468;52.058;4.824;2023-07-28T06:42:09;26.25;;;23.85;;
74908;SDS011;63468;52.058;4.824;2023-07-28T06:44:36;25.95;;;23.67;;
74908;SDS011;63468;52.058;4.824;2023-07-28T06:47:01;24.38;;;22.08;;
74908;SDS011;63468;52.058;4.824;2023-07-28T06:49:27;23.13;;;21.23;;
74908;SDS011;63468;52.058;4.824;2023-07-28T06:51:52;23.85;;;21.52;;
74908;SDS011;63468;52.058;4.824;2023-07-28T06:54:17;24.83;;;21.80;;
74908;SDS011;63468;52.058;4.824;2023-07-28T06:56:43;22.25;;;19.98;;
74908;SDS011;63468;52.058;4.824;2023-07-28T06:59:08;21.85;;;19.73;;
74908;SDS011;63468;52.058;4.824;2023-07-28T07:01:34;21.50;;;19.63;;
74908;SDS011;63468;52.058;4.824;2023-07-28T07:03:59;22.83;;;19.88;;
74908;SDS011;63468;52.058;4.824;2023-07-28T07:06:25;20.95;;;18.80;;
74908;SDS011;63468;52.058;4.824;2023-07-28T07:08:50;22.10;;;20.20;;
74908;SDS011;63468;52.058;4.824;2023-07-28T07:11:15;21.92;;;20.00;;
74908;SDS011;63468;52.058;4.824;2023-07-28T07:13:41;21.13;;;19.10;;
74908;SDS011;63468;52.058;4.824;2023-07-28T07:16:12;18.75;;;16.95;;
74908;SDS011;63468;52.058;4.824;2023-07-28T07:18:39;19.20;;;17.48;;
74908;SDS011;63468;52.058;4.824;2023-07-28T07:21:04;20.15;;;18.08;;
74908;SDS011;63468;52.058;4.824;2023-07-28T07:23:31;19.02;;;17.13;;
74908;SDS011;63468;52.058;4.824;2023-07-28T07:25:56;19.42;;;17.55;;
74908;SDS011;63468;52.058;4.824;2023-07-28T07:28:21;19.77;;;17.80;;
74908;SDS011;63468;52.058;4.824;2023-07-28T07:30:47;19.92;;;17.70;;
74908;SDS011;63468;52.058;4.824;2023-07-28T07:33:13;18.83;;;17.00;;
74908;SDS011;63468;52.058;4.824;2023-07-28T07:35:38;18.23;;;16.55;;
74908;SDS011;63468;52.058;4.824;2023-07-28T07:38:04;19.17;;;17.25;;
74908;SDS011;63468;52.058;4.824;2023-07-28T07:40:33;18.52;;;16.63;;
74908;SDS011;63468;52.058;4.824;2023-07-28T07:42:59;17.77;;;16.08;;
74908;SDS011;63468;52.058;4.824;2023-07-28T07:45:24;18.73;;;16.52;;
74908;SDS011;63468;52.058;4.824;2023-07-28T07:47:50;18.27;;;16.45;;
74908;SDS011;63468;52.058;4.824;2023-07-28T07:50:15;18.73;;;16.73;;
74908;SDS011;63468;52.058;4.824;2023-07-28T07:52:40;19.58;;;17.60;;
74908;SDS011;63468;52.058;4.824;2023-07-28T07:55:06;18.10;;;16.27;;
74908;SDS011;63468;52.058;4.824;2023-07-28T07:57:31;19.48;;;17.48;;
74908;SDS011;63468;52.058;4.824;2023-07-28T07:59:57;18.75;;;16.92;;
74908;SDS011;63468;52.058;4.824;2023-07-28T08:02:23;19.52;;;17.45;;
74908;SDS011;63468;52.058;4.824;2023-07-28T08:04:48;17.85;;;16.25;;
74908;SDS011;63468;52.058;4.824;2023-07-28T08:07:14;19.00;;;17.00;;
74908;SDS011;63468;52.058;4.824;2023-07-28T08:09:41;21.05;;;17.08;;
74908;SDS011;63468;52.058;4.824;2023-07-28T08:12:06;19.73;;;17.83;;
74908;SDS011;63468;52.058;4.824;2023-07-28T08:14:32;18.67;;;16.80;;
74908;SDS011;63468;52.058;4.824;2023-07-28T08:16:58;19.05;;;17.38;;
74908;SDS011;63468;52.058;4.824;2023-07-28T08:19:23;18.45;;;16.92;;
74908;SDS011;63468;52.058;4.824;2023-07-28T08:21:48;18.23;;;16.50;;
74908;SDS011;63468;52.058;4.824;2023-07-28T08:24:14;17.77;;;16.20;;
74908;SDS011;63468;52.058;4.824;2023-07-28T08:26:39;18.05;;;16.08;;
74908;SDS011;63468;52.058;4.824;2023-07-28T08:29:04;17.77;;;16.08;;
74908;SDS011;63468;52.058;4.824;2023-07-28T08:31:30;18.30;;;16.10;;
74908;SDS011;63468;52.058;4.824;2023-07-28T08:33:56;16.38;;;14.95;;
74908;SDS011;63468;52.058;4.824;2023-07-28T08:36:21;27.60;;;20.27;;
74908;SDS011;63468;52.058;4.824;2023-07-28T08:38:46;18.02;;;16.13;;
74908;SDS011;63468;52.058;4.824;2023-07-28T08:41:13;17.40;;;15.48;;
74908;SDS011;63468;52.058;4.824;2023-07-28T08:43:39;16.10;;;14.48;;
74908;SDS011;63468;52.058;4.824;2023-07-28T08:46:05;16.45;;;14.85;;
74908;SDS011;63468;52.058;4.824;2023-07-28T08:48:30;17.50;;;15.75;;
74908;SDS011;63468;52.058;4.824;2023-07-28T08:50:55;16.95;;;15.43;;
74908;SDS011;63468;52.058;4.824;2023-07-28T08:53:20;19.73;;;15.55;;
74908;SDS011;63468;52.058;4.824;2023-07-28T08:55:46;17.23;;;15.52;;
74908;SDS011;63468;52.058;4.824;2023-07-28T08:58:15;16.65;;;15.05;;
74908;SDS011;63468;52.058;4.824;2023-07-28T09:00:42;19.17;;;15.75;;
74908;SDS011;63468;52.058;4.824;2023-07-28T09:03:10;17.77;;;15.98;;
74908;SDS011;63468;52.058;4.824;2023-07-28T09:05:36;16.55;;;15.07;;
74908;SDS011;63468;52.058;4.824;2023-07-28T09:08:01;16.02;;;14.48;;
74908;SDS011;63468;52.058;4.824;2023-07-28T09:10:39;15.57;;;14.13;;
74908;SDS011;63468;52.058;4.824;2023-07-28T09:13:08;17.77;;;14.50;;
74908;SDS011;63468;52.058;4.824;2023-07-28T09:15:35;16.45;;;14.80;;
74908;SDS011;63468;52.058;4.824;2023-07-28T09:18:00;15.60;;;13.98;;
74908;SDS011;63468;52.058;4.824;2023-07-28T09:20:26;16.92;;;14.20;;
74908;SDS011;63468;52.058;4.824;2023-07-28T09:23:00;15.10;;;13.57;;
74908;SDS011;63468;52.058;4.824;2023-07-28T09:25:25;17.52;;;14.15;;
74908;SDS011;63468;52.058;4.824;2023-07-28T09:27:53;16.27;;;14.57;;
74908;SDS011;63468;52.058;4.824;2023-07-28T09:30:19;15.73;;;14.07;;
74908;SDS011;63468;52.058;4.824;2023-07-28T09:32:48;16.42;;;14.70;;
74908;SDS011;63468;52.058;4.824;2023-07-28T09:35:14;18.42;;;14.75;;
74908;SDS011;63468;52.058;4.824;2023-07-28T09:37:41;16.40;;;14.68;;
74908;SDS011;63468;52.058;4.824;2023-07-28T09:40:08;17.42;;;15.65;;
74908;SDS011;63468;52.058;4.824;2023-07-28T09:42:36;15.68;;;14.18;;
74908;SDS011;63468;52.058;4.824;2023-07-28T09:45:03;17.83;;;15.48;;
74908;SDS011;63468;52.058;4.824;2023-07-28T09:47:30;16.63;;;15.23;;
74908;SDS011;63468;52.058;4.824;2023-07-28T09:49:58;17.15;;;15.65;;
74908;SDS011;63468;52.058;4.824;2023-07-28T09:52:28;16.30;;;14.80;;
74908;SDS011;63468;52.058;4.824;2023-07-28T09:54:58;16.85;;;15.35;;
74908;SDS011;63468;52.058;4.824;2023-07-28T09:57:25;17.67;;;15.98;;
74908;SDS011;63468;52.058;4.824;2023-07-28T09:59:52;16.35;;;14.85;;
74908;SDS011;63468;52.058;4.824;2023-07-28T10:02:19;15.57;;;14.02;;
74908;SDS011;63468;52.058;4.824;2023-07-28T10:04:44;16.50;;;14.98;;
74908;SDS011;63468;52.058;4.824;2023-07-28T10:07:10;16.05;;;14.50;;
74908;SDS011;63468;52.058;4.824;2023-07-28T10:09:36;16.42;;;15.02;;
74908;SDS011;63468;52.058;4.824;2023-07-28T10:12:03;16.42;;;14.73;;
74908;SDS011;63468;52.058;4.824;2023-07-28T10:14:33;16.33;;;14.85;;
74908;SDS011;63468;52.058;4.824;2023-07-28T10:17:03;14.43;;;12.73;;
74908;SDS011;63468;52.058;4.824;2023-07-28T10:19:29;14.75;;;13.25;;
74908;SDS011;63468;52.058;4.824;2023-07-28T10:22:01;13.82;;;12.40;;
74908;SDS011;63468;52.058;4.824;2023-07-28T10:24:49;13.25;;;12.00;;
74908;SDS011;63468;52.058;4.824;2023-07-28T10:30:00;11.52;;;10.40;;
74908;SDS011;63468;52.058;4.824;2023-07-28T10:32:28;13.55;;;11.43;;
74908;SDS011;63468;52.058;4.824;2023-07-28T10:35:00;12.63;;;10.93;;
74908;SDS011;63468;52.058;4.824;2023-07-28T10:37:27;16.40;;;11.82;;
74908;SDS011;63468;52.058;4.824;2023-07-28T10:42:47;13.02;;;11.00;;
74908;SDS011;63468;52.058;4.824;2023-07-28T10:45:13;12.43;;;10.82;;
74908;SDS011;63468;52.058;4.824;2023-07-28T10:47:39;11.90;;;10.70;;
74908;SDS011;63468;52.058;4.824;2023-07-28T10:50:05;11.75;;;9.98;;
74908;SDS011;63468;52.058;4.824;2023-07-28T10:52:30;15.13;;;10.20;;
74908;SDS011;63468;52.058;4.824;2023-07-28T10:54:56;17.45;;;11.27;;
74908;SDS011;63468;52.058;4.824;2023-07-28T10:57:23;13.60;;;10.45;;
74908;SDS011;63468;52.058;4.824;2023-07-28T10:59:51;14.10;;;9.95;;
74908;SDS011;63468;52.058;4.824;2023-07-28T11:02:16;13.98;;;9.85;;
74908;SDS011;63468;52.058;4.824;2023-07-28T11:04:45;12.25;;;9.80;;
74908;SDS011;63468;52.058;4.824;2023-07-28T11:07:12;15.27;;;10.02;;
74908;SDS011;63468;52.058;4.824;2023-07-28T11:09:38;12.05;;;9.30;;
74908;SDS011;63468;52.058;4.824;2023-07-28T11:12:04;11.70;;;8.80;;
74908;SDS011;63468;52.058;4.824;2023-07-28T11:14:29;12.98;;;9.50;;
74908;SDS011;63468;52.058;4.824;2023-07-28T11:16:55;16.25;;;9.95;;
74908;SDS011;63468;52.058;4.824;2023-07-28T11:19:20;10.75;;;9.43;;
74908;SDS011;63468;52.058;4.824;2023-07-28T11:21:49;12.25;;;9.50;;
74908;SDS011;63468;52.058;4.824;2023-07-28T11:24:18;12.32;;;9.77;;
74908;SDS011;63468;52.058;4.824;2023-07-28T11:26:44;16.38;;;10.38;;
74908;SDS011;63468;52.058;4.824;2023-07-28T11:29:11;12.45;;;10.48;;
74908;SDS011;63468;52.058;4.824;2023-07-28T11:31:36;12.95;;;10.30;;
74908;SDS011;63468;52.058;4.824;2023-07-28T11:34:02;14.07;;;11.82;;
74908;SDS011;63468;52.058;4.824;2023-07-28T11:36:28;12.23;;;10.90;;
74908;SDS011;63468;52.058;4.824;2023-07-28T11:38:57;12.05;;;10.88;;
74908;SDS011;63468;52.058;4.824;2023-07-28T11:41:23;13.85;;;9.55;;
74908;SDS011;63468;52.058;4.824;2023-07-28T11:43:49;10.70;;;9.68;;
74908;SDS011;63468;52.058;4.824;2023-07-28T11:54:10;15.70;;;10.50;;
74908;SDS011;63468;52.058;4.824;2023-07-28T11:56:46;11.27;;;10.05;;
74908;SDS011;63468;52.058;4.824;2023-07-28T11:59:14;11.40;;;10.20;;
74908;SDS011;63468;52.058;4.824;2023-07-28T12:04:22;12.15;;;11.05;;
74908;SDS011;63468;52.058;4.824;2023-07-28T12:07:02;11.82;;;10.50;;
74908;SDS011;63468;52.058;4.824;2023-07-28T12:09:54;11.70;;;9.95;;
74908;SDS011;63468;52.058;4.824;2023-07-28T12:12:26;11.05;;;9.88;;
74908;SDS011;63468;52.058;4.824;2023-07-28T12:14:53;11.15;;;10.05;;
74908;SDS011;63468;52.058;4.824;2023-07-28T12:17:20;10.73;;;9.13;;
74908;SDS011;63468;52.058;4.824;2023-07-28T12:20:01;13.73;;;9.40;;
74908;SDS011;63468;52.058;4.824;2023-07-28T12:22:36;11.45;;;10.18;;
74908;SDS011;63468;52.058;4.824;2023-07-28T12:25:02;12.85;;;9.80;;
74908;SDS011;63468;52.058;4.824;2023-07-28T12:27:29;11.07;;;9.93;;
74908;SDS011;63468;52.058;4.824;2023-07-28T12:29:55;11.40;;;10.30;;
74908;SDS011;63468;52.058;4.824;2023-07-28T12:32:20;11.18;;;10.15;;
74908;SDS011;63468;52.058;4.824;2023-07-28T12:34:46;11.25;;;10.02;;
74908;SDS011;63468;52.058;4.824;2023-07-28T12:37:13;10.80;;;9.70;;
74908;SDS011;63468;52.058;4.824;2023-07-28T12:39:38;11.32;;;9.70;;
74908;SDS011;63468;52.058;4.824;2023-07-28T12:42:05;12.35;;;10.95;;
74908;SDS011;63468;52.058;4.824;2023-07-28T12:44:34;13.50;;;11.80;;
74908;SDS011;63468;52.058;4.824;2023-07-28T12:47:00;13.25;;;11.20;;
74908;SDS011;63468;52.058;4.824;2023-07-28T12:49:25;11.57;;;10.40;;
74908;SDS011;63468;52.058;4.824;2023-07-28T12:51:50;12.10;;;10.93;;
74908;SDS011;63468;52.058;4.824;2023-07-28T12:54:16;11.82;;;10.65;;
74908;SDS011;63468;52.058;4.824;2023-07-28T12:56:42;12.45;;;11.15;;
74908;SDS011;63468;52.058;4.824;2023-07-28T12:59:07;17.77;;;13.35;;
74908;SDS011;63468;52.058;4.824;2023-07-28T13:01:36;12.70;;;11.23;;
74908;SDS011;63468;52.058;4.824;2023-07-28T13:04:02;13.00;;;11.80;;
74908;SDS011;63468;52.058;4.824;2023-07-28T13:06:28;11.45;;;10.20;;
74908;SDS011;63468;52.058;4.824;2023-07-28T13:08:54;13.63;;;12.23;;
74908;SDS011;63468;52.058;4.824;2023-07-28T13:11:19;13.07;;;11.77;;
74908;SDS011;63468;52.058;4.824;2023-07-28T13:13:44;13.75;;;12.35;;
74908;SDS011;63468;52.058;4.824;2023-07-28T13:16:09;13.15;;;11.95;;
74908;SDS011;63468;52.058;4.824;2023-07-28T13:18:35;13.63;;;12.02;;
74908;SDS011;63468;52.058;4.824;2023-07-28T13:21:00;13.85;;;12.38;;
74908;SDS011;63468;52.058;4.824;2023-07-28T13:23:25;13.52;;;12.23;;
74908;SDS011;63468;52.058;4.824;2023-07-28T13:25:51;14.15;;;12.00;;
74908;SDS011;63468;52.058;4.824;2023-07-28T13:28:17;13.95;;;12.07;;
74908;SDS011;63468;52.058;4.824;2023-07-28T13:30:43;16.98;;;13.55;;
74908;SDS011;63468;52.058;4.824;2023-07-28T13:33:08;18.05;;;12.82;;
74908;SDS011;63468;52.058;4.824;2023-07-28T13:35:33;15.10;;;13.02;;
74908;SDS011;63468;52.058;4.824;2023-07-28T13:37:59;17.50;;;12.48;;
74908;SDS011;63468;52.058;4.824;2023-07-28T13:40:24;16.55;;;13.50;;
74908;SDS011;63468;52.058;4.824;2023-07-28T13:42:49;15.45;;;13.35;;
74908;SDS011;63468;52.058;4.824;2023-07-28T13:45:15;14.00;;;12.40;;
74908;SDS011;63468;52.058;4.824;2023-07-28T13:47:40;17.27;;;13.02;;
74908;SDS011;63468;52.058;4.824;2023-07-28T13:50:06;15.98;;;14.27;;
74908;SDS011;63468;52.058;4.824;2023-07-28T13:52:32;16.40;;;13.20;;
74908;SDS011;63468;52.058;4.824;2023-07-28T13:54:57;14.98;;;12.70;;
74908;SDS011;63468;52.058;4.824;2023-07-28T13:57:22;14.38;;;12.52;;
74908;SDS011;63468;52.058;4.824;2023-07-28T13:59:48;16.75;;;12.07;;
74908;SDS011;63468;52.058;4.824;2023-07-28T14:02:14;15.32;;;13.55;;
74908;SDS011;63468;52.058;4.824;2023-07-28T14:04:41;16.23;;;12.80;;
74908;SDS011;63468;52.058;4.824;2023-07-28T14:07:06;15.85;;;13.07;;
74908;SDS011;63468;52.058;4.824;2023-07-28T14:09:31;13.15;;;11.20;;
74908;SDS011;63468;52.058;4.824;2023-07-28T14:11:57;15.40;;;12.60;;
74908;SDS011;63468;52.058;4.824;2023-07-28T14:14:22;15.48;;;12.80;;
74908;SDS011;63468;52.058;4.824;2023-07-28T14:16:48;15.68;;;13.45;;
74908;SDS011;63468;52.058;4.824;2023-07-28T14:19:13;17.00;;;14.43;;
74908;SDS011;63468;52.058;4.824;2023-07-28T14:21:38;20.15;;;13.48;;
74908;SDS011;63468;52.058;4.824;2023-07-28T14:24:05;17.40;;;13.23;;
74908;SDS011;63468;52.058;4.824;2023-07-28T14:26:30;20.55;;;15.38;;
74908;SDS011;63468;52.058;4.824;2023-07-28T14:28:56;18.95;;;15.23;;
74908;SDS011;63468;52.058;4.824;2023-07-28T14:31:22;20.75;;;15.18;;
74908;SDS011;63468;52.058;4.824;2023-07-28T14:33:47;18.67;;;14.90;;
74908;SDS011;63468;52.058;4.824;2023-07-28T14:36:12;18.52;;;13.98;;